sensor_id;sensor_type;location;lat;lon;timestamp;P1;durP1;ratioP1;P2;durP2;ratioP2
56299;SDS011;42209;6.376;-10.782;2023-05-18T00:02:06;7.32;;;5.40;;
56299;SDS011;42209;6.376;-10.782;2023-05-18T00:04:35;8.48;;;4.82;;
56299;SDS011;42209;6.376;-10.782;2023-05-18T00:07:03;7.05;;;5.05;;
56299;SDS011;42209;6.376;-10.782;2023-05-18T00:09:33;5.15;;;4.65;;
56299;SDS011;42209;6.376;-10.782;2023-05-18T00:12:03;5.03;;;4.45;;
56299;SDS011;42209;6.376;-10.782;2023-05-18T00:14:32;4.88;;;4.35;;
56299;SDS011;42209;6.376;-10.782;2023-05-18T00:17:00;5.93;;;5.35;;
56299;SDS011;42209;6.376;-10.782;2023-05-18T00:19:28;6.57;;;4.53;;
56299;SDS011;42209;6.376;-10.782;2023-05-18T00:21:57;6.75;;;4.65;;
56299;SDS011;42209;6.376;-10.782;2023-05-18T00:24:25;5.70;;;4.82;;
56299;SDS011;42209;6.376;-10.782;2023-05-18T00:26:54;6.63;;;4.93;;
56299;SDS011;42209;6.376;-10.782;2023-05-18T00:29:22;6.47;;;4.43;;
56299;SDS011;42209;6.376;-10.782;2023-05-18T00:31:50;7.43;;;5.18;;
56299;SDS011;42209;6.376;-10.782;2023-05-18T00:34:19;7.03;;;4.90;;
56299;SDS011;42209;6.376;-10.782;2023-05-18T00:36:47;6.95;;;5.13;;
56299;SDS011;42209;6.376;-10.782;2023-05-18T00:39:16;8.70;;;4.60;;
56299;SDS011;42209;6.376;-10.782;2023-05-18T00:41:44;5.97;;;4.65;;
56299;SDS011;42209;6.376;-10.782;2023-05-18T00:44:13;5.10;;;4.00;;
56299;SDS011;42209;6.376;-10.782;2023-05-18T00:46:41;5.55;;;4.15;;
56299;SDS011;42209;6.376;-10.782;2023-05-18T00:49:09;5.88;;;4.35;;
56299;SDS011;42209;6.376;-10.782;2023-05-18T00:51:39;6.22;;;5.20;;
56299;SDS011;42209;6.376;-10.782;2023-05-18T00:56:36;6.90;;;4.43;;
56299;SDS011;42209;6.376;-10.782;2023-05-18T00:59:05;6.18;;;4.63;;
56299;SDS011;42209;6.376;-10.782;2023-05-18T01:01:34;5.85;;;4.40;;
56299;SDS011;42209;6.376;-10.782;2023-05-18T01:04:02;6.10;;;4.50;;
56299;SDS011;42209;6.376;-10.782;2023-05-18T01:06:31;7.28;;;5.10;;
56299;SDS011;42209;6.376;-10.782;2023-05-18T01:09:00;5.18;;;4.18;;
56299;SDS011;42209;6.376;-10.782;2023-05-18T01:11:43;6.35;;;4.53;;
56299;SDS011;42209;6.376;-10.782;2023-05-18T01:14:29;6.28;;;4.70;;
56299;SDS011;42209;6.376;-10.782;2023-05-18T01:20:06;6.43;;;5.25;;
56299;SDS011;42209;6.376;-10.782;2023-05-18T01:28:04;8.25;;;5.43;;
56299;SDS011;42209;6.376;-10.782;2023-05-18T01:30:38;8.32;;;5.60;;
56299;SDS011;42209;6.376;-10.782;2023-05-18T01:33:09;6.13;;;5.22;;
56299;SDS011;42209;6.376;-10.782;2023-05-18T01:35:38;7.30;;;5.85;;
56299;SDS011;42209;6.376;-10.782;2023-05-18T01:38:06;8.73;;;6.13;;
56299;SDS011;42209;6.376;-10.782;2023-05-18T01:40:44;8.43;;;5.80;;
56299;SDS011;42209;6.376;-10.782;2023-05-18T01:43:34;7.57;;;5.10;;
56299;SDS011;42209;6.376;-10.782;2023-05-18T01:46:08;10.07;;;5.53;;
56299;SDS011;42209;6.376;-10.782;2023-05-18T01:48:39;7.95;;;5.22;;
56299;SDS011;42209;6.376;-10.782;2023-05-18T01:51:13;10.10;;;5.82;;
56299;SDS011;42209;6.376;-10.782;2023-05-18T01:53:50;7.63;;;5.55;;
56299;SDS011;42209;6.376;-10.782;2023-05-18T01:56:23;6.95;;;5.57;;
56299;SDS011;42209;6.376;-10.782;2023-05-18T01:58:52;8.07;;;5.50;;
56299;SDS011;42209;6.376;-10.782;2023-05-18T02:01:22;10.38;;;6.18;;
56299;SDS011;42209;6.376;-10.782;2023-05-18T02:06:28;9.35;;;5.65;;
56299;SDS011;42209;6.376;-10.782;2023-05-18T02:13:25;8.55;;;6.30;;
56299;SDS011;42209;6.376;-10.782;2023-05-18T02:18:22;5.82;;;5.18;;
56299;SDS011;42209;6.376;-10.782;2023-05-18T02:21:00;9.15;;;5.97;;
56299;SDS011;42209;6.376;-10.782;2023-05-18T02:23:30;8.13;;;5.90;;
56299;SDS011;42209;6.376;-10.782;2023-05-18T02:25:59;7.60;;;5.10;;
56299;SDS011;42209;6.376;-10.782;2023-05-18T02:28:28;8.70;;;6.18;;
56299;SDS011;42209;6.376;-10.782;2023-05-18T02:31:09;9.20;;;6.00;;
56299;SDS011;42209;6.376;-10.782;2023-05-18T02:33:38;8.73;;;5.43;;
56299;SDS011;42209;6.376;-10.782;2023-05-18T02:38:36;7.50;;;5.32;;
56299;SDS011;42209;6.376;-10.782;2023-05-18T02:41:05;8.40;;;5.43;;
56299;SDS011;42209;6.376;-10.782;2023-05-18T02:43:34;8.30;;;5.55;;
56299;SDS011;42209;6.376;-10.782;2023-05-18T02:46:03;6.68;;;5.78;;
56299;SDS011;42209;6.376;-10.782;2023-05-18T02:48:32;8.23;;;5.05;;
56299;SDS011;42209;6.376;-10.782;2023-05-18T02:51:01;6.60;;;5.47;;
56299;SDS011;42209;6.376;-10.782;2023-05-18T02:53:30;7.32;;;5.55;;
56299;SDS011;42209;6.376;-10.782;2023-05-18T02:56:05;7.13;;;4.70;;
56299;SDS011;42209;6.376;-10.782;2023-05-18T02:58:43;6.20;;;5.00;;
56299;SDS011;42209;6.376;-10.782;2023-05-18T03:01:18;8.25;;;5.07;;
56299;SDS011;42209;6.376;-10.782;2023-05-18T03:03:50;8.88;;;5.00;;
56299;SDS011;42209;6.376;-10.782;2023-05-18T03:06:19;7.65;;;5.10;;
56299;SDS011;42209;6.376;-10.782;2023-05-18T03:08:49;7.25;;;5.28;;
56299;SDS011;42209;6.376;-10.782;2023-05-18T03:11:17;7.45;;;4.47;;
56299;SDS011;42209;6.376;-10.782;2023-05-18T03:13:46;7.90;;;5.00;;
56299;SDS011;42209;6.376;-10.782;2023-05-18T03:16:15;6.32;;;4.68;;
56299;SDS011;42209;6.376;-10.782;2023-05-18T03:18:45;5.93;;;4.50;;
56299;SDS011;42209;6.376;-10.782;2023-05-18T03:21:15;6.45;;;4.05;;
56299;SDS011;42209;6.376;-10.782;2023-05-18T03:23:43;6.30;;;4.70;;
56299;SDS011;42209;6.376;-10.782;2023-05-18T03:26:12;6.35;;;4.72;;
56299;SDS011;42209;6.376;-10.782;2023-05-18T03:28:40;6.03;;;4.47;;
56299;SDS011;42209;6.376;-10.782;2023-05-18T03:31:09;6.90;;;4.70;;
56299;SDS011;42209;6.376;-10.782;2023-05-18T03:33:37;5.22;;;4.25;;
56299;SDS011;42209;6.376;-10.782;2023-05-18T03:36:06;6.82;;;4.70;;
56299;SDS011;42209;6.376;-10.782;2023-05-18T03:38:34;6.00;;;3.83;;
56299;SDS011;42209;6.376;-10.782;2023-05-18T03:41:08;7.38;;;4.90;;
56299;SDS011;42209;6.376;-10.782;2023-05-18T03:43:37;5.72;;;4.20;;
56299;SDS011;42209;6.376;-10.782;2023-05-18T03:46:10;6.40;;;4.15;;
56299;SDS011;42209;6.376;-10.782;2023-05-18T03:48:38;6.20;;;4.28;;
56299;SDS011;42209;6.376;-10.782;2023-05-18T03:51:07;6.15;;;4.55;;
56299;SDS011;42209;6.376;-10.782;2023-05-18T03:53:35;5.40;;;4.45;;
56299;SDS011;42209;6.376;-10.782;2023-05-18T03:58:33;5.15;;;4.07;;
56299;SDS011;42209;6.376;-10.782;2023-05-18T04:01:01;5.80;;;3.63;;
56299;SDS011;42209;6.376;-10.782;2023-05-18T04:03:31;9.35;;;4.45;;
56299;SDS011;42209;6.376;-10.782;2023-05-18T04:08:28;5.13;;;4.25;;
56299;SDS011;42209;6.376;-10.782;2023-05-18T04:10:57;4.60;;;3.53;;
56299;SDS011;42209;6.376;-10.782;2023-05-18T04:13:25;4.25;;;3.45;;
56299;SDS011;42209;6.376;-10.782;2023-05-18T04:15:55;5.63;;;3.92;;
56299;SDS011;42209;6.376;-10.782;2023-05-18T04:18:24;5.30;;;3.80;;
56299;SDS011;42209;6.376;-10.782;2023-05-18T04:20:52;6.38;;;4.70;;
56299;SDS011;42209;6.376;-10.782;2023-05-18T04:23:22;5.25;;;3.97;;
56299;SDS011;42209;6.376;-10.782;2023-05-18T04:25:51;5.05;;;3.65;;
56299;SDS011;42209;6.376;-10.782;2023-05-18T04:28:19;5.13;;;3.67;;
56299;SDS011;42209;6.376;-10.782;2023-05-18T04:30:48;5.65;;;4.40;;
56299;SDS011;42209;6.376;-10.782;2023-05-18T04:33:16;5.88;;;3.83;;
56299;SDS011;42209;6.376;-10.782;2023-05-18T04:35:45;4.65;;;3.50;;
56299;SDS011;42209;6.376;-10.782;2023-05-18T04:38:14;4.10;;;3.17;;
56299;SDS011;42209;6.376;-10.782;2023-05-18T04:40:43;4.82;;;4.07;;
56299;SDS011;42209;6.376;-10.782;2023-05-18T04:43:12;6.13;;;3.58;;
56299;SDS011;42209;6.376;-10.782;2023-05-18T04:45:40;4.63;;;3.55;;
56299;SDS011;42209;6.376;-10.782;2023-05-18T04:48:08;5.72;;;3.35;;
56299;SDS011;42209;6.376;-10.782;2023-05-18T04:53:06;5.10;;;3.67;;
56299;SDS011;42209;6.376;-10.782;2023-05-18T04:55:35;5.70;;;4.22;;
56299;SDS011;42209;6.376;-10.782;2023-05-18T04:58:06;4.97;;;3.83;;
56299;SDS011;42209;6.376;-10.782;2023-05-18T05:03:03;4.78;;;3.70;;
56299;SDS011;42209;6.376;-10.782;2023-05-18T05:05:32;5.10;;;3.67;;
56299;SDS011;42209;6.376;-10.782;2023-05-18T05:08:01;5.00;;;4.05;;
56299;SDS011;42209;6.376;-10.782;2023-05-18T05:10:29;4.07;;;3.67;;
56299;SDS011;42209;6.376;-10.782;2023-05-18T05:15:26;4.97;;;3.22;;
56299;SDS011;42209;6.376;-10.782;2023-05-18T05:17:56;3.53;;;2.67;;
56299;SDS011;42209;6.376;-10.782;2023-05-18T05:20:25;4.90;;;3.60;;
56299;SDS011;42209;6.376;-10.782;2023-05-18T05:22:53;5.05;;;3.17;;
56299;SDS011;42209;6.376;-10.782;2023-05-18T05:25:26;5.88;;;3.17;;
56299;SDS011;42209;6.376;-10.782;2023-05-18T05:30:23;4.88;;;3.15;;
56299;SDS011;42209;6.376;-10.782;2023-05-18T05:35:20;6.15;;;3.20;;
56299;SDS011;42209;6.376;-10.782;2023-05-18T05:37:49;5.20;;;3.83;;
56299;SDS011;42209;6.376;-10.782;2023-05-18T05:40:18;5.75;;;3.70;;
56299;SDS011;42209;6.376;-10.782;2023-05-18T05:42:49;4.88;;;3.35;;
56299;SDS011;42209;6.376;-10.782;2023-05-18T05:45:17;4.65;;;3.13;;
56299;SDS011;42209;6.376;-10.782;2023-05-18T05:47:53;5.38;;;4.22;;
56299;SDS011;42209;6.376;-10.782;2023-05-18T05:50:23;4.13;;;3.05;;
56299;SDS011;42209;6.376;-10.782;2023-05-18T05:52:54;5.90;;;3.38;;
56299;SDS011;42209;6.376;-10.782;2023-05-18T05:55:24;4.60;;;3.53;;
56299;SDS011;42209;6.376;-10.782;2023-05-18T05:57:53;4.88;;;3.75;;
56299;SDS011;42209;6.376;-10.782;2023-05-18T06:00:21;4.40;;;2.90;;
56299;SDS011;42209;6.376;-10.782;2023-05-18T06:02:53;4.60;;;3.33;;
56299;SDS011;42209;6.376;-10.782;2023-05-18T06:05:28;4.78;;;3.38;;
56299;SDS011;42209;6.376;-10.782;2023-05-18T06:07:57;6.30;;;3.25;;
56299;SDS011;42209;6.376;-10.782;2023-05-18T06:10:25;4.30;;;2.70;;
56299;SDS011;42209;6.376;-10.782;2023-05-18T06:12:54;5.68;;;3.13;;
56299;SDS011;42209;6.376;-10.782;2023-05-18T06:15:30;5.07;;;3.13;;
56299;SDS011;42209;6.376;-10.782;2023-05-18T06:17:58;5.55;;;3.08;;
56299;SDS011;42209;6.376;-10.782;2023-05-18T06:20:28;5.95;;;3.60;;
56299;SDS011;42209;6.376;-10.782;2023-05-18T06:22:56;5.68;;;3.40;;
56299;SDS011;42209;6.376;-10.782;2023-05-18T06:25:43;3.47;;;2.60;;
56299;SDS011;42209;6.376;-10.782;2023-05-18T06:28:44;4.75;;;2.60;;
56299;SDS011;42209;6.376;-10.782;2023-05-18T06:31:32;4.72;;;3.45;;
56299;SDS011;42209;6.376;-10.782;2023-05-18T06:34:09;6.43;;;3.90;;
56299;SDS011;42209;6.376;-10.782;2023-05-18T06:36:39;4.03;;;2.90;;
56299;SDS011;42209;6.376;-10.782;2023-05-18T06:39:07;4.45;;;2.85;;
56299;SDS011;42209;6.376;-10.782;2023-05-18T06:41:36;4.72;;;3.20;;
56299;SDS011;42209;6.376;-10.782;2023-05-18T06:44:04;5.00;;;2.67;;
56299;SDS011;42209;6.376;-10.782;2023-05-18T06:46:36;4.05;;;2.72;;
56299;SDS011;42209;6.376;-10.782;2023-05-18T06:49:16;4.18;;;3.08;;
56299;SDS011;42209;6.376;-10.782;2023-05-18T06:51:44;3.88;;;3.08;;
56299;SDS011;42209;6.376;-10.782;2023-05-18T06:54:13;4.38;;;2.58;;
56299;SDS011;42209;6.376;-10.782;2023-05-18T06:56:42;4.32;;;3.40;;
56299;SDS011;42209;6.376;-10.782;2023-05-18T06:59:10;5.35;;;2.83;;
56299;SDS011;42209;6.376;-10.782;2023-05-18T07:01:38;5.57;;;3.38;;
56299;SDS011;42209;6.376;-10.782;2023-05-18T07:04:07;4.78;;;3.25;;
56299;SDS011;42209;6.376;-10.782;2023-05-18T07:06:35;4.40;;;3.22;;
56299;SDS011;42209;6.376;-10.782;2023-05-18T07:09:04;5.13;;;3.70;;
56299;SDS011;42209;6.376;-10.782;2023-05-18T07:11:33;5.43;;;3.40;;
56299;SDS011;42209;6.376;-10.782;2023-05-18T07:14:01;4.72;;;3.85;;
56299;SDS011;42209;6.376;-10.782;2023-05-18T07:16:29;6.43;;;4.00;;
56299;SDS011;42209;6.376;-10.782;2023-05-18T07:18:58;5.28;;;3.50;;
56299;SDS011;42209;6.376;-10.782;2023-05-18T07:21:26;5.45;;;4.13;;
56299;SDS011;42209;6.376;-10.782;2023-05-18T07:23:54;7.25;;;4.10;;
56299;SDS011;42209;6.376;-10.782;2023-05-18T07:26:23;4.95;;;4.03;;
56299;SDS011;42209;6.376;-10.782;2023-05-18T07:28:51;8.90;;;4.40;;
56299;SDS011;42209;6.376;-10.782;2023-05-18T07:31:19;5.68;;;3.38;;
56299;SDS011;42209;6.376;-10.782;2023-05-18T07:33:48;8.95;;;5.28;;
56299;SDS011;42209;6.376;-10.782;2023-05-18T07:36:16;13.77;;;8.70;;
56299;SDS011;42209;6.376;-10.782;2023-05-18T07:38:44;12.25;;;8.45;;
56299;SDS011;42209;6.376;-10.782;2023-05-18T07:41:13;11.52;;;8.13;;
56299;SDS011;42209;6.376;-10.782;2023-05-18T07:43:41;10.10;;;7.45;;
56299;SDS011;42209;6.376;-10.782;2023-05-18T07:46:10;12.27;;;7.35;;
56299;SDS011;42209;6.376;-10.782;2023-05-18T07:48:39;11.48;;;6.95;;
56299;SDS011;42209;6.376;-10.782;2023-05-18T07:51:07;10.63;;;7.13;;
56299;SDS011;42209;6.376;-10.782;2023-05-18T07:53:35;10.15;;;7.03;;
56299;SDS011;42209;6.376;-10.782;2023-05-18T07:56:04;7.93;;;6.60;;
56299;SDS011;42209;6.376;-10.782;2023-05-18T07:58:34;8.77;;;6.25;;
56299;SDS011;42209;6.376;-10.782;2023-05-18T08:01:02;10.80;;;6.90;;
56299;SDS011;42209;6.376;-10.782;2023-05-18T08:03:35;11.27;;;7.20;;
56299;SDS011;42209;6.376;-10.782;2023-05-18T08:06:03;7.40;;;6.10;;
56299;SDS011;42209;6.376;-10.782;2023-05-18T08:08:32;9.00;;;6.32;;
56299;SDS011;42209;6.376;-10.782;2023-05-18T08:11:00;8.55;;;5.88;;
56299;SDS011;42209;6.376;-10.782;2023-05-18T08:13:29;8.40;;;6.30;;
56299;SDS011;42209;6.376;-10.782;2023-05-18T08:16:00;11.10;;;6.90;;
56299;SDS011;42209;6.376;-10.782;2023-05-18T08:18:37;7.82;;;6.47;;
56299;SDS011;42209;6.376;-10.782;2023-05-18T08:21:06;8.13;;;6.05;;
56299;SDS011;42209;6.376;-10.782;2023-05-18T08:26:07;7.30;;;5.85;;
56299;SDS011;42209;6.376;-10.782;2023-05-18T08:28:39;9.40;;;6.22;;
56299;SDS011;42209;6.376;-10.782;2023-05-18T08:31:07;7.90;;;5.32;;
56299;SDS011;42209;6.376;-10.782;2023-05-18T08:33:37;8.00;;;4.82;;
56299;SDS011;42209;6.376;-10.782;2023-05-18T08:36:07;6.88;;;5.28;;
56299;SDS011;42209;6.376;-10.782;2023-05-18T08:38:36;7.68;;;5.72;;
56299;SDS011;42209;6.376;-10.782;2023-05-18T08:41:27;6.75;;;5.43;;
56299;SDS011;42209;6.376;-10.782;2023-05-18T08:44:02;8.07;;;5.90;;
56299;SDS011;42209;6.376;-10.782;2023-05-18T08:46:38;8.68;;;4.53;;
56299;SDS011;42209;6.376;-10.782;2023-05-18T08:49:08;7.28;;;4.63;;
56299;SDS011;42209;6.376;-10.782;2023-05-18T08:51:37;7.85;;;5.13;;
56299;SDS011;42209;6.376;-10.782;2023-05-18T08:54:07;5.93;;;4.43;;
56299;SDS011;42209;6.376;-10.782;2023-05-18T08:56:38;7.10;;;4.50;;
56299;SDS011;42209;6.376;-10.782;2023-05-18T08:59:07;7.55;;;5.30;;
56299;SDS011;42209;6.376;-10.782;2023-05-18T09:01:37;5.57;;;4.00;;
56299;SDS011;42209;6.376;-10.782;2023-05-18T09:04:05;6.82;;;3.72;;
56299;SDS011;42209;6.376;-10.782;2023-05-18T09:06:35;7.57;;;4.47;;
56299;SDS011;42209;6.376;-10.782;2023-05-18T09:09:04;5.47;;;3.90;;
56299;SDS011;42209;6.376;-10.782;2023-05-18T09:11:33;5.43;;;4.00;;
56299;SDS011;42209;6.376;-10.782;2023-05-18T09:16:29;6.63;;;3.60;;
56299;SDS011;42209;6.376;-10.782;2023-05-18T09:18:59;6.00;;;3.78;;
56299;SDS011;42209;6.376;-10.782;2023-05-18T09:21:29;5.13;;;3.78;;
56299;SDS011;42209;6.376;-10.782;2023-05-18T09:23:58;6.25;;;4.15;;
56299;SDS011;42209;6.376;-10.782;2023-05-18T09:28:55;6.75;;;3.97;;
56299;SDS011;42209;6.376;-10.782;2023-05-18T09:31:23;5.68;;;4.38;;
56299;SDS011;42209;6.376;-10.782;2023-05-18T09:33:52;4.85;;;3.17;;
56299;SDS011;42209;6.376;-10.782;2023-05-18T09:38:52;5.05;;;3.55;;
56299;SDS011;42209;6.376;-10.782;2023-05-18T09:41:20;4.75;;;3.40;;
56299;SDS011;42209;6.376;-10.782;2023-05-18T09:43:53;5.70;;;4.03;;
56299;SDS011;42209;6.376;-10.782;2023-05-18T09:46:21;3.55;;;2.58;;
56299;SDS011;42209;6.376;-10.782;2023-05-18T09:48:51;4.05;;;2.55;;
56299;SDS011;42209;6.376;-10.782;2023-05-18T09:55:45;5.40;;;3.22;;
56299;SDS011;42209;6.376;-10.782;2023-05-18T09:58:16;5.93;;;3.08;;
56299;SDS011;42209;6.376;-10.782;2023-05-18T10:00:48;5.22;;;2.90;;
56299;SDS011;42209;6.376;-10.782;2023-05-18T10:05:51;5.80;;;3.63;;
56299;SDS011;42209;6.376;-10.782;2023-05-18T10:08:20;7.60;;;4.15;;
56299;SDS011;42209;6.376;-10.782;2023-05-18T10:10:48;4.95;;;3.30;;
56299;SDS011;42209;6.376;-10.782;2023-05-18T10:13:18;7.10;;;3.38;;
56299;SDS011;42209;6.376;-10.782;2023-05-18T10:15:49;7.47;;;2.53;;
56299;SDS011;42209;6.376;-10.782;2023-05-18T10:18:20;7.95;;;3.08;;
56299;SDS011;42209;6.376;-10.782;2023-05-18T10:20:54;5.72;;;2.90;;
56299;SDS011;42209;6.376;-10.782;2023-05-18T10:23:29;6.25;;;2.40;;
56299;SDS011;42209;6.376;-10.782;2023-05-18T10:25:58;6.50;;;2.88;;
56299;SDS011;42209;6.376;-10.782;2023-05-18T10:28:33;5.15;;;2.65;;
56299;SDS011;42209;6.376;-10.782;2023-05-18T10:31:10;5.10;;;2.47;;
56299;SDS011;42209;6.376;-10.782;2023-05-18T10:33:43;4.97;;;3.10;;
56299;SDS011;42209;6.376;-10.782;2023-05-18T10:36:13;6.85;;;3.22;;
56299;SDS011;42209;6.376;-10.782;2023-05-18T10:38:44;5.38;;;3.05;;
56299;SDS011;42209;6.376;-10.782;2023-05-18T10:41:15;5.65;;;2.97;;
56299;SDS011;42209;6.376;-10.782;2023-05-18T10:43:47;5.32;;;2.80;;
56299;SDS011;42209;6.376;-10.782;2023-05-18T10:46:16;5.88;;;2.85;;
56299;SDS011;42209;6.376;-10.782;2023-05-18T10:48:45;5.03;;;3.00;;
56299;SDS011;42209;6.376;-10.782;2023-05-18T10:51:17;4.95;;;3.15;;
56299;SDS011;42209;6.376;-10.782;2023-05-18T10:53:46;7.10;;;3.17;;
56299;SDS011;42209;6.376;-10.782;2023-05-18T10:56:15;5.90;;;3.20;;
56299;SDS011;42209;6.376;-10.782;2023-05-18T10:58:44;6.22;;;2.78;;
56299;SDS011;42209;6.376;-10.782;2023-05-18T11:01:13;5.07;;;3.13;;
56299;SDS011;42209;6.376;-10.782;2023-05-18T11:03:42;4.18;;;2.35;;
56299;SDS011;42209;6.376;-10.782;2023-05-18T11:06:12;5.93;;;3.15;;
56299;SDS011;42209;6.376;-10.782;2023-05-18T11:08:49;6.93;;;3.20;;
56299;SDS011;42209;6.376;-10.782;2023-05-18T11:11:18;5.35;;;3.00;;
56299;SDS011;42209;6.376;-10.782;2023-05-18T11:13:50;4.22;;;2.35;;
56299;SDS011;42209;6.376;-10.782;2023-05-18T11:18:48;5.35;;;3.30;;
56299;SDS011;42209;6.376;-10.782;2023-05-18T11:26:47;5.03;;;2.90;;
56299;SDS011;42209;6.376;-10.782;2023-05-18T11:31:56;6.00;;;3.05;;
56299;SDS011;42209;6.376;-10.782;2023-05-18T11:34:44;4.75;;;2.55;;
56299;SDS011;42209;6.376;-10.782;2023-05-18T11:37:16;7.22;;;3.45;;
56299;SDS011;42209;6.376;-10.782;2023-05-18T11:40:04;8.60;;;3.17;;
56299;SDS011;42209;6.376;-10.782;2023-05-18T11:42:37;5.70;;;3.22;;
56299;SDS011;42209;6.376;-10.782;2023-05-18T11:45:10;5.30;;;2.88;;
56299;SDS011;42209;6.376;-10.782;2023-05-18T11:47:39;5.95;;;3.17;;
56299;SDS011;42209;6.376;-10.782;2023-05-18T11:50:08;5.63;;;2.40;;
56299;SDS011;42209;6.376;-10.782;2023-05-18T11:52:53;6.55;;;2.78;;
56299;SDS011;42209;6.376;-10.782;2023-05-18T11:55:23;6.15;;;3.08;;
56299;SDS011;42209;6.376;-10.782;2023-05-18T11:58:04;7.20;;;3.13;;
56299;SDS011;42209;6.376;-10.782;2023-05-18T12:00:35;7.43;;;3.55;;
56299;SDS011;42209;6.376;-10.782;2023-05-18T12:03:14;4.95;;;2.60;;
56299;SDS011;42209;6.376;-10.782;2023-05-18T12:05:43;5.88;;;2.67;;
56299;SDS011;42209;6.376;-10.782;2023-05-18T12:08:12;5.90;;;2.78;;
56299;SDS011;42209;6.376;-10.782;2023-05-18T12:10:44;6.93;;;3.05;;
56299;SDS011;42209;6.376;-10.782;2023-05-18T12:13:13;5.50;;;3.38;;
56299;SDS011;42209;6.376;-10.782;2023-05-18T12:15:43;5.57;;;2.30;;
56299;SDS011;42209;6.376;-10.782;2023-05-18T12:18:12;3.92;;;2.45;;
56299;SDS011;42209;6.376;-10.782;2023-05-18T12:20:45;4.45;;;2.00;;
56299;SDS011;42209;6.376;-10.782;2023-05-18T12:23:15;5.15;;;2.50;;
56299;SDS011;42209;6.376;-10.782;2023-05-18T12:25:43;3.80;;;2.28;;
56299;SDS011;42209;6.376;-10.782;2023-05-18T12:28:12;7.88;;;2.63;;
56299;SDS011;42209;6.376;-10.782;2023-05-18T12:33:10;5.50;;;2.45;;
56299;SDS011;42209;6.376;-10.782;2023-05-18T12:35:39;6.72;;;2.13;;
56299;SDS011;42209;6.376;-10.782;2023-05-18T12:38:08;5.13;;;2.53;;
56299;SDS011;42209;6.376;-10.782;2023-05-18T12:40:37;3.80;;;1.85;;
56299;SDS011;42209;6.376;-10.782;2023-05-18T12:43:05;7.32;;;2.40;;
56299;SDS011;42209;6.376;-10.782;2023-05-18T12:45:34;5.80;;;2.13;;
56299;SDS011;42209;6.376;-10.782;2023-05-18T12:48:05;6.07;;;2.17;;
56299;SDS011;42209;6.376;-10.782;2023-05-18T12:50:36;6.85;;;2.30;;
56299;SDS011;42209;6.376;-10.782;2023-05-18T12:53:16;5.47;;;1.50;;
56299;SDS011;42209;6.376;-10.782;2023-05-18T12:55:44;6.18;;;2.63;;
56299;SDS011;42209;6.376;-10.782;2023-05-18T12:58:23;6.65;;;2.20;;
56299;SDS011;42209;6.376;-10.782;2023-05-18T13:00:52;4.75;;;1.95;;
56299;SDS011;42209;6.376;-10.782;2023-05-18T13:03:20;4.15;;;1.67;;
56299;SDS011;42209;6.376;-10.782;2023-05-18T13:06:02;7.82;;;2.72;;
56299;SDS011;42209;6.376;-10.782;2023-05-18T13:08:32;5.47;;;1.90;;
56299;SDS011;42209;6.376;-10.782;2023-05-18T13:11:04;4.55;;;1.73;;
56299;SDS011;42209;6.376;-10.782;2023-05-18T13:13:37;5.03;;;2.03;;
56299;SDS011;42209;6.376;-10.782;2023-05-18T13:16:14;3.75;;;1.63;;
56299;SDS011;42209;6.376;-10.782;2023-05-18T13:18:44;3.55;;;1.63;;
56299;SDS011;42209;6.376;-10.782;2023-05-18T13:21:13;4.03;;;1.63;;
56299;SDS011;42209;6.376;-10.782;2023-05-18T13:23:41;5.97;;;1.30;;
56299;SDS011;42209;6.376;-10.782;2023-05-18T13:26:09;3.58;;;1.70;;
56299;SDS011;42209;6.376;-10.782;2023-05-18T13:28:38;3.75;;;1.17;;
56299;SDS011;42209;6.376;-10.782;2023-05-18T13:31:06;3.75;;;1.60;;
56299;SDS011;42209;6.376;-10.782;2023-05-18T13:33:38;4.53;;;1.75;;
56299;SDS011;42209;6.376;-10.782;2023-05-18T13:36:06;3.75;;;1.45;;
56299;SDS011;42209;6.376;-10.782;2023-05-18T13:41:03;4.22;;;1.65;;
56299;SDS011;42209;6.376;-10.782;2023-05-18T13:43:32;6.57;;;2.22;;
56299;SDS011;42209;6.376;-10.782;2023-05-18T13:53:44;6.72;;;1.73;;
56299;SDS011;42209;6.376;-10.782;2023-05-18T13:56:12;4.18;;;1.45;;
56299;SDS011;42209;6.376;-10.782;2023-05-18T13:58:40;5.75;;;2.63;;
56299;SDS011;42209;6.376;-10.782;2023-05-18T14:01:08;4.55;;;1.45;;
56299;SDS011;42209;6.376;-10.782;2023-05-18T14:03:39;4.05;;;1.67;;
56299;SDS011;42209;6.376;-10.782;2023-05-18T14:06:08;3.60;;;1.52;;
56299;SDS011;42209;6.376;-10.782;2023-05-18T14:08:36;3.20;;;1.17;;
56299;SDS011;42209;6.376;-10.782;2023-05-18T14:11:04;4.63;;;1.73;;
56299;SDS011;42209;6.376;-10.782;2023-05-18T14:13:32;5.32;;;2.22;;
56299;SDS011;42209;6.376;-10.782;2023-05-18T14:16:01;5.35;;;1.75;;
56299;SDS011;42209;6.376;-10.782;2023-05-18T14:18:29;4.03;;;1.13;;
56299;SDS011;42209;6.376;-10.782;2023-05-18T14:20:57;5.50;;;1.50;;
56299;SDS011;42209;6.376;-10.782;2023-05-18T14:23:26;5.57;;;1.70;;
56299;SDS011;42209;6.376;-10.782;2023-05-18T14:25:54;5.95;;;1.95;;
56299;SDS011;42209;6.376;-10.782;2023-05-18T14:28:23;6.65;;;1.20;;
56299;SDS011;42209;6.376;-10.782;2023-05-18T14:30:51;5.60;;;1.65;;
56299;SDS011;42209;6.376;-10.782;2023-05-18T14:33:19;4.72;;;1.85;;
56299;SDS011;42209;6.376;-10.782;2023-05-18T14:42:53;3.88;;;1.17;;
56299;SDS011;42209;6.376;-10.782;2023-05-18T14:47:49;3.72;;;1.23;;
56299;SDS011;42209;6.376;-10.782;2023-05-18T14:50:17;4.75;;;1.27;;
56299;SDS011;42209;6.376;-10.782;2023-05-18T14:52:46;4.07;;;1.27;;
56299;SDS011;42209;6.376;-10.782;2023-05-18T14:55:14;2.53;;;1.42;;
56299;SDS011;42209;6.376;-10.782;2023-05-18T14:57:42;3.05;;;0.82;;
56299;SDS011;42209;6.376;-10.782;2023-05-18T15:00:11;3.40;;;1.20;;
56299;SDS011;42209;6.376;-10.782;2023-05-18T15:05:08;3.33;;;1.10;;
56299;SDS011;42209;6.376;-10.782;2023-05-18T15:07:36;4.15;;;1.05;;
56299;SDS011;42209;6.376;-10.782;2023-05-18T15:10:05;1.92;;;0.90;;
56299;SDS011;42209;6.376;-10.782;2023-05-18T15:12:34;2.10;;;1.10;;
56299;SDS011;42209;6.376;-10.782;2023-05-18T15:15:02;2.17;;;1.55;;
56299;SDS011;42209;6.376;-10.782;2023-05-18T15:17:31;3.47;;;1.10;;
56299;SDS011;42209;6.376;-10.782;2023-05-18T15:19:59;3.40;;;0.88;;
56299;SDS011;42209;6.376;-10.782;2023-05-18T15:22:27;2.85;;;1.15;;
56299;SDS011;42209;6.376;-10.782;2023-05-18T15:24:56;1.88;;;0.90;;
56299;SDS011;42209;6.376;-10.782;2023-05-18T15:27:24;3.13;;;0.98;;
56299;SDS011;42209;6.376;-10.782;2023-05-18T15:29:53;3.90;;;0.93;;
56299;SDS011;42209;6.376;-10.782;2023-05-18T15:32:21;4.07;;;0.93;;
56299;SDS011;42209;6.376;-10.782;2023-05-18T15:34:52;2.10;;;0.68;;
56299;SDS011;42209;6.376;-10.782;2023-05-18T15:37:21;4.68;;;0.70;;
56299;SDS011;42209;6.376;-10.782;2023-05-18T15:39:50;2.90;;;0.90;;
56299;SDS011;42209;6.376;-10.782;2023-05-18T15:42:18;5.22;;;1.25;;
56299;SDS011;42209;6.376;-10.782;2023-05-18T15:44:47;4.63;;;0.50;;
56299;SDS011;42209;6.376;-10.782;2023-05-18T15:47:15;3.35;;;0.65;;
56299;SDS011;42209;6.376;-10.782;2023-05-18T15:52:11;3.85;;;0.70;;
56299;SDS011;42209;6.376;-10.782;2023-05-18T15:54:40;4.32;;;1.00;;
56299;SDS011;42209;6.376;-10.782;2023-05-18T15:57:08;2.10;;;0.60;;
56299;SDS011;42209;6.376;-10.782;2023-05-18T15:59:36;3.30;;;0.43;;
56299;SDS011;42209;6.376;-10.782;2023-05-18T16:02:05;3.50;;;0.90;;
56299;SDS011;42209;6.376;-10.782;2023-05-18T16:04:33;4.22;;;1.15;;
56299;SDS011;42209;6.376;-10.782;2023-05-18T16:07:03;4.80;;;1.00;;
56299;SDS011;42209;6.376;-10.782;2023-05-18T16:09:31;4.13;;;0.88;;
56299;SDS011;42209;6.376;-10.782;2023-05-18T16:11:59;3.42;;;0.80;;
56299;SDS011;42209;6.376;-10.782;2023-05-18T16:14:27;4.13;;;1.05;;
56299;SDS011;42209;6.376;-10.782;2023-05-18T16:16:56;3.08;;;0.82;;
56299;SDS011;42209;6.376;-10.782;2023-05-18T16:19:24;4.05;;;0.95;;
56299;SDS011;42209;6.376;-10.782;2023-05-18T16:21:53;2.63;;;0.88;;
56299;SDS011;42209;6.376;-10.782;2023-05-18T16:24:23;4.68;;;1.13;;
56299;SDS011;42209;6.376;-10.782;2023-05-18T16:26:52;2.85;;;0.93;;